Nearby METAR Reports

 

KFRG - , , USA
Distance from station: SSW 12mi, 20km
Updated: 08/19/2018 10:53am
Overcast
Overcast
 Wind from ENE
Wind: ENE 8 mph , 13 km/h, Gust: 21 mph , 33 km/h
Temperature: 70°F , 21°C
Dew Point: 64°F , 18°C
Humidity: 83%
Barometer: 29.98 inHg , 1015.2 hPa
Clouds: Overcast
Visibility: 10 miles , 16 km
Cloud details: Overcast 1600 ft
2018/08/19 14:53 KFRG 191453Z 06007G18KT 10SM OVC016 21/18 A2998 RMK AO2 SLP151 T02110178 51015
KISP - , , USA
Distance from station: ESE 14mi, 23km
Updated: 08/19/2018 9:56am
Overcast
Overcast
 Wind from NE
Wind: NE 12 mph , 19 km/h
Temperature: 66°F , 19°C
Dew Point: 66°F , 19°C
Humidity: 100%
Barometer: 29.97 inHg , 1014.9 hPa
Clouds: Overcast
Visibility: 10 miles , 16 km
Cloud details: Mostly cloudy 900 ft
Overcast 1800 ft
2018/08/19 13:56 KISP 191356Z 04010KT 10SM BKN009 OVC018 19/19 A2997 RMK AO2 RAE24 SLP147 P0000 T01940189
 
KBDR - , , USA
Distance from station: NNE 21mi, 34km
Updated: 08/19/2018 10:52am
Overcast
Overcast
 Wind from NE
Wind: NE 12 mph , 19 km/h
Temperature: 73°F , 23°C
Dew Point: 61°F , 16°C
Humidity: 65%
Barometer: 29.99 inHg , 1015.6 hPa
Clouds: Overcast
Visibility: 10 miles , 16 km
Cloud details: Partly cloudy 2500 ft
Overcast 3500 ft
2018/08/19 14:52 KBDR 191452Z 05010KT 10SM SCT025 OVC035 23/16 A2999 RMK AO2 SLP156 T02280161 53015
KHPN - , , USA
Distance from station: WNW 22mi, 35km
Updated: 08/19/2018 9:56am
Mostly cloudy
Mostly cloudy
 Wind from NE
Wind: NE 12 mph , 19 km/h
Temperature: 70°F , 21°C
Dew Point: 63°F , 17°C
Humidity: 78%
Barometer: 29.98 inHg , 1015.2 hPa
Clouds: Mostly cloudy
Visibility: 10 miles , 16 km
Cloud details: Mostly cloudy 1900 ft
Mostly cloudy 2700 ft
2018/08/19 13:56 KHPN 191356Z 05010KT 10SM BKN019 BKN027 21/17 A2998 RMK AO2 SLP148 T02060167 $
 
KHWV - , , USA
Distance from station: ESE 26mi, 41km
Updated: 08/19/2018 10:32am
Overcast
Overcast
 Wind from varies
Wind: varies 6 mph , 9 km/h
Temperature: 66°F , 19°C
Dew Point: 66°F , 19°C
Humidity: 100%
Barometer: 29.99 inHg , 1015.6 hPa
Clouds: Overcast
Visibility: 10 miles , 16 km
Cloud details: Overcast 1200 ft
2018/08/19 14:32 KHWV 191432Z AUTO VRB05KT 10SM OVC012 19/19 A2999 RMK AO2 RAE05 P0000 T01940189 $
KJFK - , , USA
Distance from station: SW 29mi, 46km
Updated: 08/19/2018 10:51am
Overcast
Overcast
 Wind from NE
Wind: NE 14 mph , 22 km/h
Temperature: 68°F , 20°C
Dew Point: 66°F , 19°C
Humidity: 94%
Barometer: 29.99 inHg , 1015.6 hPa
Clouds: Overcast
Visibility: 10 miles , 16 km
Cloud details: Mostly cloudy 1700 ft
Mostly cloudy 2200 ft
Overcast 3000 ft
2018/08/19 14:51 KJFK 191451Z 04012KT 10SM BKN017 BKN022 OVC030 20/19 A2999 RMK AO2 PK WND 05026/1407 SLP154 60002 T02000189 53018
 
KLGA - , , USA
Distance from station: WSW 29mi, 47km
Updated: 08/19/2018 10:51am
Mostly cloudy
Mostly cloudy
 Wind from ENE
Wind: ENE 17 mph , 28 km/h
Temperature: 72°F , 22°C
Dew Point: 63°F , 17°C
Humidity: 73%
Barometer: 29.98 inHg , 1015.2 hPa
Clouds: Mostly cloudy
Visibility: 10 miles , 16 km
Cloud details: Mostly cloudy 1800 ft
Mostly cloudy 3500 ft
Mostly cloudy 13000 ft
2018/08/19 14:51 KLGA 191451Z 06015KT 10SM BKN018 BKN035 BKN130 22/17 A2998 RMK AO2 SLP153 60000 T02220167 53019 $